createdAt,value
2023-04-30T00:02:09.498Z,9.84
2023-04-30T00:04:36.063Z,9.50
2023-04-30T00:07:02.782Z,9.44
2023-04-30T00:09:29.424Z,9.74
2023-04-30T00:11:56.093Z,9.39
2023-04-30T00:14:22.623Z,9.64
2023-04-30T00:16:49.253Z,9.46
2023-04-30T00:19:15.903Z,9.57
2023-04-30T00:21:42.567Z,9.44
2023-04-30T00:24:09.103Z,9.56
2023-04-30T00:26:35.707Z,9.41
2023-04-30T00:29:02.288Z,9.35
2023-04-30T00:31:28.998Z,9.55
2023-04-30T00:33:56.144Z,9.36
2023-04-30T00:36:22.956Z,9.52
2023-04-30T00:38:49.499Z,9.38
2023-04-30T00:41:16.520Z,9.13
2023-04-30T00:43:43.035Z,9.32
2023-04-30T00:46:09.663Z,8.88
2023-04-30T00:48:36.884Z,9.05
2023-04-30T00:51:04.090Z,8.93
2023-04-30T00:53:31.176Z,9.13
2023-04-30T00:55:57.874Z,9.17
2023-04-30T00:58:25.918Z,9.24
2023-04-30T01:00:52.554Z,8.91
2023-04-30T01:03:19.922Z,9.01
2023-04-30T01:05:46.719Z,8.70
2023-04-30T01:08:13.290Z,8.62
2023-04-30T01:10:53.930Z,8.80
2023-04-30T01:13:32.038Z,8.82
2023-04-30T01:16:08.388Z,9.00
2023-04-30T01:18:37.632Z,8.90
2023-04-30T01:21:05.653Z,8.68
2023-04-30T01:23:32.273Z,8.53
2023-04-30T01:26:11.416Z,8.58
2023-04-30T01:28:38.282Z,8.56
2023-04-30T01:31:11.426Z,8.62
2023-04-30T01:33:38.062Z,8.48
2023-04-30T01:36:19.202Z,8.29
2023-04-30T01:38:55.111Z,8.37
2023-04-30T01:41:28.076Z,8.35
2023-04-30T01:43:54.666Z,8.48
2023-04-30T01:46:30.853Z,8.48
2023-04-30T01:49:12.058Z,8.53
2023-04-30T01:51:41.931Z,8.48
2023-04-30T01:54:30.952Z,8.48
2023-04-30T01:57:04.570Z,8.38
2023-04-30T01:59:33.310Z,8.40
2023-04-30T02:02:00.153Z,8.40
2023-04-30T02:04:27.003Z,8.31
2023-04-30T02:06:53.683Z,8.37
2023-04-30T02:09:20.385Z,8.33
2023-04-30T02:11:46.927Z,8.30
2023-04-30T02:14:13.504Z,8.25
2023-04-30T02:16:40.322Z,8.17
2023-04-30T02:19:07.017Z,7.96
2023-04-30T02:21:33.784Z,7.98
2023-04-30T02:24:00.803Z,7.88
2023-04-30T02:26:27.349Z,7.86
2023-04-30T02:28:53.932Z,8.05
2023-04-30T02:31:20.522Z,7.81
2023-04-30T02:33:47.194Z,7.76
2023-04-30T02:36:13.924Z,8.06
2023-04-30T02:38:40.600Z,7.96
2023-04-30T02:41:07.085Z,7.93
2023-04-30T02:43:33.934Z,7.82
2023-04-30T02:46:00.745Z,7.72
2023-04-30T02:48:27.397Z,7.82
2023-04-30T02:50:53.899Z,7.66
2023-04-30T02:53:20.613Z,7.65
2023-04-30T02:55:47.330Z,7.47
2023-04-30T02:58:13.900Z,7.42
2023-04-30T03:00:40.467Z,7.79
2023-04-30T03:03:07.647Z,7.48
2023-04-30T03:05:34.365Z,7.30
2023-04-30T03:08:00.932Z,7.61
2023-04-30T03:10:27.457Z,7.39
2023-04-30T03:12:54.262Z,7.05
2023-04-30T03:15:20.977Z,6.81
2023-04-30T03:17:47.609Z,6.99
2023-04-30T03:20:14.394Z,6.98
2023-04-30T03:22:41.842Z,7.20
2023-04-30T03:25:10.566Z,7.45
2023-04-30T03:27:37.142Z,7.45
2023-04-30T03:30:03.848Z,7.38
2023-04-30T03:32:30.468Z,7.20
2023-04-30T03:34:57.246Z,7.21
2023-04-30T03:37:23.945Z,7.32
2023-04-30T03:39:50.591Z,7.30
2023-04-30T03:42:17.172Z,6.76
2023-04-30T03:44:43.793Z,6.76
2023-04-30T03:47:10.434Z,6.55
2023-04-30T03:49:37.323Z,7.05
2023-04-30T03:52:05.536Z,6.92
2023-04-30T03:54:33.904Z,6.96
2023-04-30T03:57:04.390Z,7.06
2023-04-30T03:59:32.143Z,6.74
2023-04-30T04:02:00.091Z,6.74
2023-04-30T04:04:26.942Z,7.01
2023-04-30T04:06:53.696Z,6.95
2023-04-30T04:09:20.784Z,6.67
2023-04-30T04:11:47.326Z,6.23
2023-04-30T04:14:14.129Z,6.37
2023-04-30T04:16:42.184Z,6.20
2023-04-30T04:19:09.056Z,6.44
2023-04-30T04:21:36.524Z,6.48
2023-04-30T04:24:08.847Z,6.19
2023-04-30T04:26:36.290Z,6.27
2023-04-30T04:29:04.410Z,6.29
2023-04-30T04:31:32.087Z,6.60
2023-04-30T04:34:00.368Z,6.51
2023-04-30T04:36:28.491Z,7.11
2023-04-30T04:38:57.721Z,7.27
2023-04-30T04:41:25.391Z,7.35
2023-04-30T04:43:52.908Z,7.15
2023-04-30T04:46:20.942Z,7.59
2023-04-30T04:48:47.614Z,7.43
2023-04-30T04:51:14.215Z,7.52
2023-04-30T04:53:40.719Z,7.54
2023-04-30T04:56:07.435Z,7.33
2023-04-30T04:58:34.026Z,7.45
2023-04-30T05:01:01.305Z,7.34
2023-04-30T05:03:29.483Z,7.56
2023-04-30T05:05:56.634Z,7.31
2023-04-30T05:08:23.225Z,7.77
2023-04-30T05:10:49.784Z,7.65
2023-04-30T05:13:16.357Z,7.92
2023-04-30T05:15:43.224Z,8.13
2023-04-30T05:18:09.885Z,7.90
2023-04-30T05:20:36.580Z,8.06
2023-04-30T05:23:03.361Z,7.98
2023-04-30T05:25:30.057Z,8.20
2023-04-30T05:27:56.877Z,8.13
2023-04-30T05:30:23.521Z,8.57
2023-04-30T05:32:52.610Z,8.14
2023-04-30T05:35:19.388Z,8.32
2023-04-30T05:37:46.089Z,8.51
2023-04-30T05:40:13.207Z,8.63
2023-04-30T05:42:40.926Z,8.84
2023-04-30T05:45:08.315Z,8.71
2023-04-30T05:47:34.843Z,8.87
2023-04-30T05:50:01.487Z,8.99
2023-04-30T05:52:28.011Z,9.13
2023-04-30T05:54:54.633Z,9.04
2023-04-30T05:57:21.219Z,9.67
2023-04-30T05:59:47.842Z,9.28
2023-04-30T06:02:14.485Z,9.06
2023-04-30T06:04:41.267Z,9.62
2023-04-30T06:07:07.805Z,9.76
2023-04-30T06:09:34.400Z,10.10
2023-04-30T06:12:02.508Z,10.20
2023-04-30T06:14:29.105Z,10.09
2023-04-30T06:16:55.841Z,10.13
2023-04-30T06:19:22.469Z,10.08
2023-04-30T06:21:48.948Z,10.40
2023-04-30T06:24:15.607Z,10.79
2023-04-30T06:26:42.096Z,10.79
2023-04-30T06:29:08.779Z,10.29
2023-04-30T06:31:35.366Z,10.63
2023-04-30T06:34:02.054Z,10.39
2023-04-30T06:36:28.519Z,10.58
2023-04-30T06:38:55.091Z,10.39
2023-04-30T06:41:21.630Z,10.36
2023-04-30T06:43:48.190Z,10.42
2023-04-30T06:46:15.222Z,10.50
2023-04-30T06:48:42.060Z,10.85
2023-04-30T06:51:10.457Z,10.69
2023-04-30T06:53:37.540Z,10.75
2023-04-30T06:56:04.259Z,10.80
2023-04-30T06:58:30.904Z,10.72
2023-04-30T07:00:58.265Z,10.89
2023-04-30T07:03:25.068Z,10.85
2023-04-30T07:05:53.857Z,11.07
2023-04-30T07:08:20.922Z,11.35
2023-04-30T07:10:47.404Z,11.53
2023-04-30T07:13:13.971Z,11.43
2023-04-30T07:15:40.620Z,11.47
2023-04-30T07:18:07.225Z,11.56
2023-04-30T07:20:33.818Z,11.73
2023-04-30T07:23:00.476Z,11.37
2023-04-30T07:25:27.152Z,11.86
2023-04-30T07:27:54.877Z,11.80
2023-04-30T07:30:24.390Z,11.95
2023-04-30T07:32:51.753Z,12.17
2023-04-30T07:35:19.084Z,11.96
2023-04-30T07:37:47.952Z,12.21
2023-04-30T07:40:21.914Z,11.70
2023-04-30T07:42:55.380Z,11.72
2023-04-30T07:45:21.885Z,11.81
2023-04-30T07:47:48.782Z,11.75
2023-04-30T07:50:16.132Z,12.14
2023-04-30T07:52:42.759Z,12.52
2023-04-30T07:55:09.524Z,12.99
2023-04-30T07:57:36.200Z,12.83
2023-04-30T08:00:02.874Z,12.52
2023-04-30T08:02:39.093Z,12.38
2023-04-30T08:05:06.015Z,12.40
2023-04-30T08:07:32.542Z,12.47
2023-04-30T08:09:59.106Z,12.64
2023-04-30T08:12:25.652Z,13.03
2023-04-30T08:14:59.546Z,13.05
2023-04-30T08:17:26.167Z,13.08
2023-04-30T08:19:52.966Z,13.02
2023-04-30T08:22:19.866Z,13.67
2023-04-30T08:24:46.796Z,14.11
2023-04-30T08:27:13.354Z,14.34
2023-04-30T08:29:39.922Z,14.58
2023-04-30T08:32:06.598Z,14.09
2023-04-30T08:34:33.143Z,13.34
2023-04-30T08:37:00.308Z,13.57
2023-04-30T08:39:26.963Z,13.75
2023-04-30T08:41:57.141Z,13.28
2023-04-30T08:44:24.028Z,13.49
2023-04-30T08:46:54.163Z,13.49
2023-04-30T08:49:24.966Z,14.27
2023-04-30T08:51:52.589Z,14.47
2023-04-30T08:54:19.169Z,13.67
2023-04-30T08:56:45.828Z,14.06
2023-04-30T08:59:12.954Z,14.75
2023-04-30T09:01:39.656Z,14.87
2023-04-30T09:04:06.581Z,15.36
2023-04-30T09:06:33.191Z,16.18
2023-04-30T09:09:07.843Z,16.49
2023-04-30T09:11:34.380Z,16.09
2023-04-30T09:14:01.802Z,15.41
2023-04-30T09:16:33.121Z,15.25
2023-04-30T09:19:00.474Z,14.88
2023-04-30T09:21:34.039Z,14.30
2023-04-30T09:24:01.963Z,14.55
2023-04-30T09:26:31.663Z,14.94
2023-04-30T09:28:59.329Z,15.61
2023-04-30T09:31:26.509Z,15.96
2023-04-30T09:33:53.855Z,15.46
2023-04-30T09:36:20.696Z,15.94
2023-04-30T09:38:47.413Z,16.25
2023-04-30T09:41:27.505Z,16.74
2023-04-30T09:43:57.574Z,17.63
2023-04-30T09:46:34.651Z,18.06
2023-04-30T09:49:02.182Z,17.71
2023-04-30T09:51:28.742Z,17.01
2023-04-30T09:53:56.224Z,16.72
2023-04-30T09:56:26.761Z,16.86
2023-04-30T09:58:54.710Z,16.64
2023-04-30T10:01:21.781Z,16.99
2023-04-30T10:03:49.416Z,17.05
2023-04-30T10:06:18.484Z,17.23
2023-04-30T10:08:49.563Z,17.06
2023-04-30T10:11:19.736Z,17.74
2023-04-30T10:14:12.365Z,17.40
2023-04-30T10:16:42.035Z,17.21
2023-04-30T10:19:19.137Z,16.92
2023-04-30T10:21:46.809Z,16.63
2023-04-30T10:24:14.243Z,16.53
2023-04-30T10:26:41.583Z,16.91
2023-04-30T10:29:09.154Z,16.84
2023-04-30T10:31:36.344Z,16.64
2023-04-30T10:34:11.719Z,16.49
2023-04-30T10:37:01.316Z,16.99
2023-04-30T10:39:28.902Z,17.34
2023-04-30T10:42:02.666Z,17.86
2023-04-30T10:44:31.805Z,18.03
2023-04-30T10:46:58.972Z,17.91
2023-04-30T10:49:26.521Z,18.47
2023-04-30T10:51:58.435Z,18.15
2023-04-30T10:54:26.423Z,20.91
2023-04-30T10:56:53.259Z,21.58
2023-04-30T10:59:20.210Z,22.69
2023-04-30T11:02:00.063Z,22.95
2023-04-30T11:04:27.327Z,23.10
2023-04-30T11:06:56.569Z,23.35
2023-04-30T11:09:42.992Z,22.85
2023-04-30T11:12:12.462Z,25.29
2023-04-30T11:14:43.387Z,25.51
2023-04-30T11:17:11.486Z,26.23
2023-04-30T11:19:46.076Z,26.02
2023-04-30T11:22:16.478Z,27.55
2023-04-30T11:24:52.265Z,28.33
2023-04-30T11:27:28.795Z,26.86
2023-04-30T11:29:56.259Z,28.31
2023-04-30T11:32:24.498Z,28.64
2023-04-30T11:34:51.859Z,28.08
2023-04-30T11:37:38.430Z,27.04
2023-04-30T11:40:07.804Z,27.85
2023-04-30T11:42:35.103Z,27.99
2023-04-30T11:45:09.160Z,28.16
2023-04-30T11:47:43.135Z,28.42
2023-04-30T11:50:10.596Z,27.44
2023-04-30T11:52:37.214Z,26.93
2023-04-30T11:55:08.208Z,27.02
2023-04-30T11:57:35.747Z,26.29
2023-04-30T12:00:12.462Z,25.73
2023-04-30T12:02:39.940Z,24.30
2023-04-30T12:05:12.668Z,22.61
2023-04-30T12:07:39.653Z,24.28
2023-04-30T12:10:06.972Z,24.16
2023-04-30T12:12:36.681Z,23.63
2023-04-30T12:15:11.201Z,22.76
2023-04-30T12:17:37.883Z,21.97
2023-04-30T12:20:05.282Z,22.21
2023-04-30T12:22:32.190Z,22.36
2023-04-30T12:24:59.813Z,23.02
2023-04-30T12:27:26.345Z,23.58
2023-04-30T12:29:55.057Z,22.85
2023-04-30T12:32:22.197Z,22.90
2023-04-30T12:34:48.917Z,22.23
2023-04-30T12:37:16.951Z,21.90
2023-04-30T12:39:44.203Z,22.03
2023-04-30T12:42:11.402Z,20.42
2023-04-30T12:44:44.811Z,21.03
2023-04-30T12:47:11.488Z,20.98
2023-04-30T12:49:38.121Z,20.90
2023-04-30T12:52:08.656Z,21.60
2023-04-30T12:54:36.217Z,22.16
2023-04-30T12:57:09.757Z,23.33
2023-04-30T12:59:54.652Z,24.14
2023-04-30T13:02:25.514Z,22.81
2023-04-30T13:04:52.760Z,23.30
2023-04-30T13:07:19.271Z,22.65
2023-04-30T13:09:46.017Z,22.23
2023-04-30T13:12:12.553Z,21.32
2023-04-30T13:14:39.098Z,21.39
2023-04-30T13:17:07.296Z,22.49
2023-04-30T13:19:34.836Z,22.97
2023-04-30T13:22:01.801Z,22.57
2023-04-30T13:24:28.490Z,23.31
2023-04-30T13:26:55.066Z,23.36
2023-04-30T13:29:21.775Z,21.73
2023-04-30T13:31:51.167Z,23.46
2023-04-30T13:34:19.991Z,24.86
2023-04-30T13:36:46.903Z,25.55
2023-04-30T13:39:13.667Z,26.29
2023-04-30T13:41:40.366Z,26.66
2023-04-30T13:44:07.247Z,26.36
2023-04-30T13:46:33.790Z,25.32
2023-04-30T13:49:01.275Z,24.56
2023-04-30T13:51:28.252Z,25.02
2023-04-30T13:53:54.921Z,26.35
2023-04-30T13:56:21.472Z,25.62
2023-04-30T13:58:50.660Z,26.28
2023-04-30T14:01:17.338Z,27.04
2023-04-30T14:03:44.190Z,27.51
2023-04-30T14:06:10.868Z,27.68
2023-04-30T14:08:37.513Z,27.48
2023-04-30T14:11:04.101Z,27.47
2023-04-30T14:13:31.187Z,27.30
2023-04-30T14:15:57.778Z,27.48
2023-04-30T14:18:24.453Z,27.38
2023-04-30T14:20:51.184Z,27.27
2023-04-30T14:23:17.978Z,27.02
2023-04-30T14:25:46.893Z,26.48
2023-04-30T14:28:15.145Z,27.26
2023-04-30T14:30:44.791Z,27.01
2023-04-30T14:33:12.712Z,26.48
2023-04-30T14:35:51.932Z,27.20
2023-04-30T14:38:18.566Z,26.05
2023-04-30T14:40:45.133Z,26.08
2023-04-30T14:43:18.952Z,25.58
2023-04-30T14:45:45.932Z,25.17
2023-04-30T14:48:12.616Z,24.58
2023-04-30T14:50:39.281Z,24.98
2023-04-30T14:53:06.398Z,24.54
2023-04-30T14:55:33.918Z,23.20
2023-04-30T14:58:00.987Z,22.79
2023-04-30T15:00:29.445Z,22.32
2023-04-30T15:02:56.155Z,22.11
2023-04-30T15:05:23.068Z,22.02
2023-04-30T15:07:49.599Z,21.75
2023-04-30T15:10:19.114Z,21.52
2023-04-30T15:12:45.707Z,20.81
2023-04-30T15:15:12.305Z,20.46
2023-04-30T15:17:41.459Z,20.56
2023-04-30T15:20:08.857Z,20.15
2023-04-30T15:22:35.544Z,20.45
2023-04-30T15:25:02.462Z,20.38
2023-04-30T15:27:29.430Z,20.48
2023-04-30T15:29:57.853Z,20.21
2023-04-30T15:32:24.683Z,20.11
2023-04-30T15:34:51.267Z,20.00
2023-04-30T15:37:17.951Z,19.85
2023-04-30T15:39:44.614Z,19.98
2023-04-30T15:42:11.306Z,20.22
2023-04-30T15:44:37.842Z,19.94
2023-04-30T15:47:04.475Z,19.75
2023-04-30T15:49:31.117Z,19.24
2023-04-30T15:52:00.706Z,19.64
2023-04-30T15:54:27.252Z,19.47
2023-04-30T15:57:00.275Z,19.67
2023-04-30T15:59:27.653Z,19.67
2023-04-30T16:01:54.730Z,19.77
2023-04-30T16:04:22.159Z,19.95
2023-04-30T16:06:51.428Z,19.80
2023-04-30T16:09:19.828Z,19.54
2023-04-30T16:11:47.455Z,19.31
2023-04-30T16:14:16.640Z,19.50
2023-04-30T16:16:43.231Z,19.35
2023-04-30T16:19:12.319Z,19.43
2023-04-30T16:21:41.176Z,19.40
2023-04-30T16:24:09.323Z,19.43
2023-04-30T16:26:36.206Z,19.51
2023-04-30T16:29:06.167Z,19.70
2023-04-30T16:31:32.915Z,19.81
2023-04-30T16:33:59.560Z,19.68
2023-04-30T16:36:26.322Z,19.80
2023-04-30T16:38:52.934Z,19.86
2023-04-30T16:41:22.807Z,19.34
2023-04-30T16:43:49.476Z,19.28
2023-04-30T16:46:16.026Z,19.59
2023-04-30T16:48:42.739Z,19.45
2023-04-30T16:51:09.624Z,18.85
2023-04-30T16:53:37.060Z,18.66
2023-04-30T16:56:03.669Z,18.91
2023-04-30T16:58:32.907Z,18.49
2023-04-30T17:00:59.459Z,18.04
2023-04-30T17:03:26.156Z,18.06
2023-04-30T17:05:53.156Z,18.07
2023-04-30T17:08:26.266Z,18.02
2023-04-30T17:10:55.157Z,17.59
2023-04-30T17:13:22.554Z,18.01
2023-04-30T17:15:49.136Z,17.65
2023-04-30T17:18:15.858Z,17.34
2023-04-30T17:20:42.553Z,17.06
2023-04-30T17:23:09.075Z,17.23
2023-04-30T17:25:36.013Z,17.41
2023-04-30T17:28:02.559Z,17.61
2023-04-30T17:30:29.302Z,17.50
2023-04-30T17:32:56.725Z,17.38
2023-04-30T17:35:23.470Z,17.18
2023-04-30T17:37:50.168Z,17.24
2023-04-30T17:40:16.957Z,17.46
2023-04-30T17:42:43.951Z,17.23
2023-04-30T17:45:14.101Z,17.25
2023-04-30T17:47:40.887Z,17.37
2023-04-30T17:50:08.651Z,17.35
2023-04-30T17:52:38.496Z,16.83
2023-04-30T17:55:06.228Z,16.41
2023-04-30T17:57:32.844Z,16.72
2023-04-30T17:59:59.502Z,16.65
2023-04-30T18:02:26.295Z,16.79
2023-04-30T18:04:53.092Z,16.77
2023-04-30T18:07:19.865Z,16.30
2023-04-30T18:09:47.440Z,16.47
2023-04-30T18:12:15.523Z,16.25
2023-04-30T18:14:42.092Z,15.87
2023-04-30T18:17:08.704Z,15.87
2023-04-30T18:19:38.663Z,15.70
2023-04-30T18:22:05.317Z,15.52
2023-04-30T18:24:32.325Z,15.43
2023-04-30T18:26:58.914Z,15.19
2023-04-30T18:29:26.456Z,15.08
2023-04-30T18:31:53.189Z,14.68
2023-04-30T18:34:20.087Z,14.36
2023-04-30T18:36:46.702Z,14.38
2023-04-30T18:39:13.391Z,14.08
2023-04-30T18:41:40.022Z,14.27
2023-04-30T18:44:07.230Z,14.37
2023-04-30T18:46:33.836Z,14.51
2023-04-30T18:49:02.192Z,14.44
2023-04-30T18:51:28.806Z,14.17
2023-04-30T18:53:59.737Z,14.23
2023-04-30T18:56:26.363Z,13.98
2023-04-30T18:58:53.027Z,13.82
2023-04-30T19:01:21.549Z,13.95
2023-04-30T19:03:48.278Z,13.74
2023-04-30T19:06:17.140Z,13.62
2023-04-30T19:08:45.616Z,13.41
2023-04-30T19:11:13.033Z,13.42
2023-04-30T19:13:40.064Z,13.34
2023-04-30T19:16:06.873Z,13.18
2023-04-30T19:18:35.080Z,13.00
2023-04-30T19:21:02.320Z,12.78
2023-04-30T19:23:30.690Z,12.61
2023-04-30T19:25:57.980Z,12.76
2023-04-30T19:28:24.586Z,12.80
2023-04-30T19:30:54.542Z,12.75
2023-04-30T19:33:21.878Z,12.80
2023-04-30T19:35:49.513Z,12.37
2023-04-30T19:38:16.427Z,12.40
2023-04-30T19:41:01.303Z,12.30
2023-04-30T19:43:27.987Z,12.57
2023-04-30T19:45:55.406Z,12.17
2023-04-30T19:48:22.645Z,11.94
2023-04-30T19:50:51.786Z,11.68
2023-04-30T19:53:18.378Z,11.14
2023-04-30T19:55:45.430Z,10.65
2023-04-30T19:58:12.026Z,10.58
2023-04-30T20:00:41.191Z,10.51
2023-04-30T20:03:15.491Z,10.37
2023-04-30T20:05:42.783Z,10.62
2023-04-30T20:08:10.179Z,10.27
2023-04-30T20:10:38.163Z,10.32
2023-04-30T20:13:05.592Z,10.35
2023-04-30T20:15:32.886Z,10.55
2023-04-30T20:17:59.841Z,10.06
2023-04-30T20:20:28.369Z,10.22
2023-04-30T20:22:57.695Z,10.29
2023-04-30T20:25:29.471Z,9.82
2023-04-30T20:27:56.494Z,10.28
2023-04-30T20:30:23.156Z,10.18
2023-04-30T20:32:49.834Z,9.92
2023-04-30T20:35:16.739Z,9.98
2023-04-30T20:37:45.696Z,10.01
2023-04-30T20:40:15.510Z,9.87
2023-04-30T20:42:42.170Z,10.06
2023-04-30T20:45:09.146Z,10.01
2023-04-30T20:47:35.805Z,10.01
2023-04-30T20:50:02.551Z,10.10
2023-04-30T20:52:29.124Z,9.67
2023-04-30T20:54:56.371Z,9.69
2023-04-30T20:57:22.941Z,9.43
2023-04-30T20:59:49.471Z,9.81
2023-04-30T21:02:16.431Z,9.80
2023-04-30T21:04:45.297Z,9.58
2023-04-30T21:07:11.966Z,9.57
2023-04-30T21:09:39.864Z,9.46
2023-04-30T21:12:06.457Z,9.36
2023-04-30T21:14:33.532Z,9.04
2023-04-30T21:17:00.161Z,9.36
2023-04-30T21:19:26.848Z,9.92
2023-04-30T21:21:53.468Z,10.19
2023-04-30T21:24:20.054Z,9.72
2023-04-30T21:26:46.679Z,9.34
2023-04-30T21:29:13.248Z,9.60
2023-04-30T21:31:39.903Z,9.75
2023-04-30T21:34:06.808Z,9.76
2023-04-30T21:36:37.673Z,9.55
2023-04-30T21:39:06.459Z,9.39
2023-04-30T21:41:33.002Z,9.23
2023-04-30T21:43:59.642Z,9.54
2023-04-30T21:46:26.275Z,9.78
2023-04-30T21:48:53.056Z,9.56
2023-04-30T21:51:19.655Z,9.41
2023-04-30T21:53:46.556Z,8.61
2023-04-30T21:56:13.198Z,8.43
2023-04-30T21:58:39.968Z,8.88
2023-04-30T22:01:08.782Z,8.79
2023-04-30T22:03:35.709Z,9.01
2023-04-30T22:06:02.553Z,9.20
2023-04-30T22:08:29.347Z,9.07
2023-04-30T22:11:00.175Z,8.85
2023-04-30T22:13:30.348Z,8.82
2023-04-30T22:15:57.231Z,8.81
2023-04-30T22:18:24.675Z,8.77
2023-04-30T22:20:52.348Z,8.92
2023-04-30T22:23:21.268Z,8.98
2023-04-30T22:25:48.234Z,9.01
2023-04-30T22:28:19.338Z,8.94
2023-04-30T22:30:49.028Z,8.98
2023-04-30T22:33:15.628Z,8.88
2023-04-30T22:35:45.382Z,8.68
2023-04-30T22:38:12.680Z,8.57
2023-04-30T22:40:42.400Z,8.34
2023-04-30T22:43:09.458Z,8.72
2023-04-30T22:45:40.561Z,8.87
2023-04-30T22:48:10.652Z,9.06
2023-04-30T22:50:37.987Z,8.91
2023-04-30T22:53:04.544Z,9.06
2023-04-30T22:55:31.634Z,8.77
2023-04-30T22:57:59.934Z,8.90
2023-04-30T23:00:26.924Z,8.66
2023-04-30T23:02:53.713Z,8.56
2023-04-30T23:05:22.814Z,8.60
2023-04-30T23:07:52.476Z,8.82
2023-04-30T23:10:19.146Z,8.27
2023-04-30T23:12:45.688Z,8.70
2023-04-30T23:15:12.479Z,8.48
2023-04-30T23:17:39.078Z,8.21
2023-04-30T23:20:06.057Z,8.32
2023-04-30T23:22:35.425Z,8.38
2023-04-30T23:25:02.045Z,8.67
2023-04-30T23:27:28.914Z,8.90
2023-04-30T23:29:56.360Z,8.84
2023-04-30T23:32:23.414Z,8.93
2023-04-30T23:34:50.226Z,8.91
2023-04-30T23:37:16.940Z,8.27
2023-04-30T23:39:43.602Z,7.85
2023-04-30T23:42:10.304Z,7.80
2023-04-30T23:44:37.009Z,7.82
2023-04-30T23:47:03.585Z,7.72
2023-04-30T23:49:30.208Z,7.43
2023-04-30T23:51:56.790Z,7.60
2023-04-30T23:54:23.366Z,7.44
2023-04-30T23:56:49.925Z,7.65
2023-04-30T23:59:16.727Z,7.34
